Time;durP1;ratioP1;P1;durP2;ratioP2;P2;SDS_P1;SDS_P2;PMS_P1;PMS_P2;Temp;Humidity;BMP_temperature;BMP_pressure;BME280_temperature;BME280_humidity;BME280_pressure;Samples;Min_cycle;Max_cycle;Signal;HPM_P1;HPM_P2
2022/06/03 00:01:04;;;;;;;8.45;5.68;;;;;;;23.42;71.74;99914.34;5104280;28;20032;-67
2022/06/03 00:03:42;;;;;;;11.32;5.95;;;;;;;23.50;70.79;99913.16;5107707;28;20094;-67
2022/06/03 00:06:25;;;;;;;13.93;5.72;;;;;;;23.42;70.99;99906.25;5106575;28;20028;-67
2022/06/03 00:09:06;;;;;;;11.73;6.75;;;;;;;23.33;70.51;99907.69;5100488;28;20103;-67
2022/06/03 00:11:47;;;;;;;14.35;5.35;;;;;;;23.22;70.90;99903.16;5106779;28;20234;-66
2022/06/03 00:14:49;;;;;;;13.18;5.80;;;;;;;23.28;70.42;99898.69;5104410;28;20366;-67
2022/06/03 00:17:15;;;;;;;11.05;5.43;;;;;;;23.29;70.57;99905.72;5103454;28;20080;-67
2022/06/03 00:19:51;;;;;;;13.02;5.70;;;;;;;23.34;70.27;99903.13;5107960;28;20330;-67
2022/06/03 00:22:37;;;;;;;15.50;5.95;;;;;;;23.38;70.10;99899.69;5107199;28;20039;-67
2022/06/03 00:25:14;;;;;;;13.20;5.82;;;;;;;23.45;69.66;99899.53;5107269;28;20229;-66
2022/06/03 00:28:03;;;;;;;11.80;5.78;;;;;;;23.54;69.38;99904.34;5106560;28;20028;-66
2022/06/03 00:30:41;;;;;;;12.05;5.72;;;;;;;23.51;69.37;99895.88;5103667;28;20059;-66
2022/06/03 00:33:26;;;;;;;9.77;6.03;;;;;;;23.35;70.12;99897.47;5104840;28;20048;-67
2022/06/03 00:36:13;;;;;;;10.65;6.20;;;;;;;23.32;70.18;99897.13;5065103;28;20067;-66
2022/06/03 00:39:10;;;;;;;11.82;5.90;;;;;;;22.98;71.74;99896.19;5109006;28;20115;-67
2022/06/03 00:41:35;;;;;;;10.52;5.88;;;;;;;22.94;72.01;99895.84;5119151;28;20038;-67
2022/06/03 00:44:03;;;;;;;15.80;5.78;;;;;;;22.99;71.59;99895.16;5121747;28;20043;-67
2022/06/03 00:46:35;;;;;;;11.48;5.70;;;;;;;23.00;70.99;99903.00;5124875;28;20027;-67
2022/06/03 00:49:29;;;;;;;10.77;5.78;;;;;;;22.95;71.02;99899.38;5122999;28;20051;-67
2022/06/03 00:52:13;;;;;;;;;;;;;;;22.85;71.39;99899.97;5080032;28;20364;-67
2022/06/03 00:55:09;;;;;;;13.07;5.68;;;;;;;22.85;71.65;99897.25;5124579;28;19916;-67
2022/06/03 00:58:10;;;;;;;14.30;5.70;;;;;;;22.83;71.69;99893.97;5125224;28;20030;-67
2022/06/03 01:01:00;;;;;;;12.55;5.70;;;;;;;22.56;72.11;99893.66;5124780;28;20035;-67
2022/06/03 01:03:50;;;;;;;10.10;5.00;;;;;;;22.41;72.34;99896.00;5111762;28;20063;-67
2022/06/03 01:06:22;;;;;;;12.80;6.00;;;;;;;22.38;72.60;99885.69;5122803;28;20045;-67
2022/06/03 01:08:50;;;;;;;10.80;5.85;;;;;;;22.24;73.00;99883.22;5124688;28;20031;-67
2022/06/03 01:11:40;;;;;;;11.85;5.68;;;;;;;22.27;72.70;99877.34;5124654;28;20092;-67
2022/06/03 01:14:20;;;;;;;13.57;6.07;;;;;;;22.33;72.78;99877.47;5124565;28;20035;-67
2022/06/03 01:16:54;;;;;;;11.38;6.05;;;;;;;22.32;72.42;99873.13;5124486;28;20325;-67
2022/06/03 01:19:45;;;;;;;11.88;5.72;;;;;;;22.36;72.01;99866.22;5124719;28;20035;-66
2022/06/03 01:22:19;;;;;;;13.05;5.90;;;;;;;22.36;72.07;99872.44;5118051;28;20248;-67
2022/06/03 01:25:10;;;;;;;9.50;5.70;;;;;;;22.28;72.40;99868.22;5124605;28;20043;-67
2022/06/03 01:27:55;;;;;;;18.95;5.95;;;;;;;22.22;72.51;99876.44;5124559;28;20016;-67
2022/06/03 01:30:36;;;;;;;10.88;5.47;;;;;;;22.34;71.81;99876.41;5118576;28;20027;-67
2022/06/03 01:33:26;;;;;;;15.13;5.50;;;;;;;22.44;71.13;99873.94;5112804;28;20214;-67
2022/06/03 01:36:10;;;;;;;11.52;5.78;;;;;;;22.50;70.81;99876.53;5104037;28;20312;-67
2022/06/03 01:38:53;;;;;;;10.47;5.93;;;;;;;22.62;70.04;99876.50;5102310;28;20133;-67
2022/06/03 01:41:27;;;;;;;14.32;5.15;;;;;;;22.75;68.95;99878.94;5104483;28;20225;-67
2022/06/03 01:43:58;;;;;;;;;;;;;;;22.53;69.62;99877.94;5109158;28;20091;-67
2022/06/03 01:46:30;;;;;;;13.60;6.05;;;;;;;22.30;70.64;99881.47;5105891;28;20156;-67
2022/06/03 01:49:27;;;;;;;15.77;5.78;;;;;;;22.11;71.27;99877.25;5107158;28;20030;-67
2022/06/03 01:52:17;;;;;;;14.85;6.00;;;;;;;22.06;71.64;99874.44;5104792;28;20203;-67
2022/06/03 01:55:08;;;;;;;17.42;5.85;;;;;;;21.97;72.05;99874.75;5102124;28;20080;-67
2022/06/03 01:58:00;;;;;;;17.90;6.07;;;;;;;21.97;71.98;99882.00;5105635;28;20036;-66
2022/06/03 02:00:44;;;;;;;27.38;5.70;;;;;;;21.99;71.42;99879.91;5108195;28;20062;-67
2022/06/03 02:03:31;;;;;;;26.67;6.32;;;;;;;21.97;72.26;99872.03;5107977;28;20036;-67
2022/06/03 02:05:56;;;;;;;20.42;5.72;;;;;;;21.76;72.65;99877.97;5103591;28;20205;-67
2022/06/03 02:08:46;;;;;;;18.33;5.97;;;;;;;21.88;72.40;99878.84;5105511;28;20035;-67
2022/06/03 02:11:49;;;;;;;27.63;7.00;;;;;;;21.92;72.10;99885.41;5107963;28;20048;-67
2022/06/03 02:14:53;;;;;;;18.73;6.03;;;;;;;21.47;74.10;99885.03;5105047;28;20405;-67
2022/06/03 02:17:46;;;;;;;17.50;5.68;;;;;;;21.50;73.96;99881.06;5103514;28;20031;-67
2022/06/03 02:20:36;;;;;;;12.23;5.68;;;;;;;21.64;73.19;99883.31;5105702;28;20032;-67
2022/06/03 02:23:10;;;;;;;14.90;5.95;;;;;;;21.85;72.50;99887.38;5104689;28;20043;-67
2022/06/03 02:26:02;;;;;;;18.30;5.63;;;;;;;21.95;71.70;99889.50;5104838;28;20028;-67
2022/06/03 02:28:39;;;;;;;15.75;5.38;;;;;;;22.06;71.15;99890.59;5073133;28;20051;-67
2022/06/03 02:31:24;;;;;;;15.63;5.25;;;;;;;22.10;70.69;99891.78;5104072;28;20028;-67
2022/06/03 02:34:08;;;;;;;;;;;;;;;22.32;69.53;99892.84;5102161;28;20311;-67
2022/06/03 02:37:04;;;;;;;15.02;5.72;;;;;;;22.22;69.73;99898.00;5102675;28;19912;-67
2022/06/03 02:39:57;;;;;;;12.43;5.35;;;;;;;22.04;69.98;99903.50;5104762;28;20040;-67
2022/06/03 02:42:48;;;;;;;15.88;5.85;;;;;;;22.03;70.37;99904.56;5104861;28;20341;-67
2022/06/03 02:45:39;;;;;;;16.85;6.10;;;;;;;22.11;70.30;99905.03;5107119;28;20024;-67
2022/06/03 02:48:11;;;;;;;12.38;6.03;;;;;;;22.02;70.37;99906.41;5104957;28;20214;-67
2022/06/03 02:50:53;;;;;;;14.10;6.47;;;;;;;22.05;70.12;99899.75;5107314;28;20060;-67
2022/06/03 02:54:01;;;;;;;15.18;5.82;;;;;;;22.03;70.05;99908.06;5106963;28;20035;-67
2022/06/03 02:56:47;;;;;;;14.25;5.68;;;;;;;21.96;69.91;99908.16;5092421;28;20044;-67
2022/06/03 02:59:31;;;;;;;13.05;5.50;;;;;;;21.91;70.38;99921.50;5102434;28;20102;-67
2022/06/03 03:02:04;;;;;;;;;;;;;;;21.88;70.41;99921.97;5103702;28;20032;-67
2022/06/03 03:04:40;;;;;;;13.48;5.80;;;;;;;21.80;70.83;99922.25;5104296;28;20189;-67
2022/06/03 03:07:38;;;;;;;14.30;6.28;;;;;;;21.59;71.63;99922.78;5104674;28;20095;-67
2022/06/03 03:10:19;;;;;;;18.10;6.18;;;;;;;21.66;71.47;99918.13;5105202;28;20035;-67
2022/06/03 03:12:55;;;;;;;22.10;6.60;;;;;;;21.80;70.91;99913.38;5104941;28;20039;-67
2022/06/03 03:15:32;;;;;;;17.05;5.70;;;;;;;21.81;71.02;99925.78;5103037;28;20230;-67
2022/06/03 03:18:22;;;;;;;12.52;5.50;;;;;;;21.68;71.44;99932.19;5105835;28;20087;-67
2022/06/03 03:20:59;;;;;;;17.25;6.20;;;;;;;21.67;71.42;99930.56;5109827;28;20125;-67
2022/06/03 03:23:47;;;;;;;13.85;5.43;;;;;;;21.88;70.64;99921.16;5111809;28;20024;-67
2022/06/03 03:26:52;;;;;;;7.85;5.43;;;;;;;22.05;69.86;99926.72;5110674;28;20356;-67
2022/06/03 03:29:39;;;;;;;12.27;5.70;;;;;;;21.97;69.66;99925.97;5110920;28;20042;-67
2022/06/03 03:32:22;;;;;;;13.35;5.43;;;;;;;22.09;69.06;99939.50;5109525;28;20036;-67
2022/06/03 03:35:09;;;;;;;13.25;5.38;;;;;;;21.99;69.50;99947.31;5109700;28;20288;-67
2022/06/03 03:37:53;;;;;;;13.73;5.50;;;;;;;22.04;69.35;99943.94;5110081;28;20028;-67
2022/06/03 03:40:43;;;;;;;10.93;5.43;;;;;;;21.85;70.24;99943.16;5110538;28;20335;-67
2022/06/03 03:43:46;;;;;;;11.43;5.50;;;;;;;22.03;69.14;99951.22;5110440;28;20047;-67
2022/06/03 03:46:53;;;;;;;21.75;6.32;;;;;;;22.25;68.57;99959.56;5109253;28;20031;-68
2022/06/03 03:49:39;;;;;;;17.88;5.15;;;;;;;22.36;68.32;99960.63;5111142;28;20051;-67
2022/06/03 03:52:33;;;;;;;19.60;6.43;;;;;;;22.64;67.16;99971.56;5110511;28;20379;-67
2022/06/03 03:55:26;;;;;;;9.35;5.20;;;;;;;22.65;66.83;99975.06;5109677;28;20106;-67
2022/06/03 03:58:34;;;;;;;17.58;5.03;;;;;;;22.71;66.40;99980.34;5110327;28;20026;-67
2022/06/03 04:00:59;;;;;;;15.68;5.63;;;;;;;22.76;66.08;99988.56;5111301;28;20035;-67
2022/06/03 04:04:16;;;;;;;17.20;6.40;;;;;;;22.75;66.56;99984.22;5107533;28;20048;-68
2022/06/03 04:07:02;;;;;;;14.63;6.35;;;;;;;22.90;66.36;99983.81;5073877;28;20052;-67
2022/06/03 04:09:46;;;;;;;13.50;5.93;;;;;;;22.90;66.27;99994.59;5109092;28;20046;-67
2022/06/03 04:12:21;;;;;;;13.52;5.68;;;;;;;22.97;65.89;99995.28;5109093;28;20051;-67
2022/06/03 04:15:04;;;;;;;13.98;5.85;;;;;;;23.23;65.53;99992.06;5113170;28;20023;-67
2022/06/03 04:17:35;;;;;;;12.82;6.03;;;;;;;23.55;64.83;100007.88;5112640;28;20060;-68
2022/06/03 04:20:20;;;;;;;19.23;5.95;;;;;;;23.96;63.10;100006.78;5110277;28;20030;-67
2022/06/03 04:22:54;;;;;;;;;;;;;;;24.19;62.20;100011.25;5110728;28;20367;-67
2022/06/03 04:25:30;;;;;;;;;;;;;;;24.44;60.71;100014.41;5110974;28;19957;-67
2022/06/03 04:28:05;;;;;;;19.55;6.55;;;;;;;24.69;59.79;100016.69;5110125;28;19949;-67
2022/06/03 04:30:52;;;;;;;15.20;5.93;;;;;;;24.75;59.69;100028.41;5105974;28;20032;-67
2022/06/03 04:33:56;;;;;;;15.25;5.53;;;;;;;25.20;58.09;100039.13;5108555;28;20036;-67
2022/06/03 04:37:12;;;;;;;11.77;5.78;;;;;;;25.74;56.37;100042.00;5075528;28;20063;-67
2022/06/03 04:40:15;;;;;;;19.42;5.60;;;;;;;26.08;55.43;100042.66;5072064;28;20322;-67
2022/06/03 04:43:10;;;;;;;16.10;5.95;;;;;;;26.14;54.95;100035.38;5106429;28;20294;-67
2022/06/03 04:46:13;;;;;;;12.90;5.55;;;;;;;26.19;55.92;100038.13;5108337;28;20359;-68
2022/06/03 04:49:00;;;;;;;22.05;6.75;;;;;;;26.14;54.87;100038.91;5106181;28;20230;-67
2022/06/03 04:51:43;;;;;;;16.02;8.18;;;;;;;25.71;59.49;100035.19;5115693;28;20360;-67
2022/06/03 04:54:31;;;;;;;24.05;7.68;;;;;;;25.35;60.00;100039.34;5124050;28;20036;-67
2022/06/03 04:57:34;;;;;;;24.88;8.30;;;;;;;25.42;61.19;100037.25;5108796;28;20024;-67
2022/06/03 05:00:08;;;;;;;16.63;7.38;;;;;;;25.75;59.96;100035.50;5102877;28;20341;-68
2022/06/03 05:03:08;;;;;;;13.68;7.20;;;;;;;26.31;56.50;100039.59;5105772;28;20036;-68
2022/06/03 05:06:18;;;;;;;22.80;7.88;;;;;;;26.79;55.33;100045.16;5100109;28;20245;-67
2022/06/03 05:08:52;;;;;;;14.65;7.25;;;;;;;27.19;54.07;100048.19;5057892;28;20157;-68
2022/06/03 05:11:39;;;;;;;18.20;7.20;;;;;;;27.59;52.67;100047.56;5113934;28;20043;-67
2022/06/03 05:14:29;;;;;;;17.90;7.20;;;;;;;27.99;50.84;100052.31;5110000;28;20035;-68
2022/06/03 05:17:13;;;;;;;10.18;6.15;;;;;;;28.35;48.23;100041.53;5105383;28;20027;-68
2022/06/03 05:19:58;;;;;;;12.25;6.20;;;;;;;28.80;47.30;100040.69;5105345;28;20031;-68
2022/06/03 05:22:26;;;;;;;17.65;6.65;;;;;;;28.97;46.75;100039.59;5104909;28;20036;-68
2022/06/03 05:25:04;;;;;;;15.07;6.00;;;;;;;29.20;45.04;100041.75;5107613;28;20031;-68
2022/06/03 05:27:48;;;;;;;15.60;6.00;;;;;;;29.39;44.35;100037.31;5107994;28;20039;-68
2022/06/03 05:30:47;;;;;;;15.30;5.85;;;;;;;29.50;44.36;100038.13;5108781;28;20095;-68
2022/06/03 05:33:38;;;;;;;12.27;5.45;;;;;;;29.61;43.96;100036.16;5105300;28;20028;-67
2022/06/03 05:36:44;;;;;;;12.40;5.80;;;;;;;29.46;44.41;100040.59;5107657;28;20047;-68
2022/06/03 05:39:34;;;;;;;18.75;6.45;;;;;;;29.65;44.25;100035.31;5104712;28;20023;-68
2022/06/03 05:42:29;;;;;;;14.80;5.55;;;;;;;30.06;43.98;100035.91;5105533;28;20032;-68
2022/06/03 05:45:33;;;;;;;18.48;5.97;;;;;;;30.48;42.94;100038.06;5105856;28;20015;-68
2022/06/03 05:48:04;;;;;;;13.73;5.37;;;;;;;30.49;42.25;100039.69;5103981;28;20133;-68
2022/06/03 05:50:57;;;;;;;16.75;5.60;;;;;;;30.59;42.26;100030.63;5107322;28;20032;-68
2022/06/03 05:53:34;;;;;;;10.77;5.10;;;;;;;30.65;42.42;100029.47;5102143;28;20032;-68
2022/06/03 05:56:22;;;;;;;14.15;4.97;;;;;;;30.78;42.20;100028.00;5104151;28;20218;-68
2022/06/03 05:59:12;;;;;;;10.82;5.22;;;;;;;31.12;41.58;100027.91;5105877;28;20226;-68
2022/06/03 06:02:15;;;;;;;12.82;5.68;;;;;;;31.06;42.70;100021.66;5105318;28;20255;-68
2022/06/03 06:05:18;;;;;;;13.30;5.25;;;;;;;31.41;41.38;100023.22;5105276;28;20046;-68
2022/06/03 06:07:55;;;;;;;15.35;5.80;;;;;;;31.39;40.62;100022.69;5107827;28;20330;-68
2022/06/03 06:11:00;;;;;;;18.38;5.38;;;;;;;31.38;41.50;100023.00;5105223;28;20062;-68
2022/06/03 06:13:50;;;;;;;14.10;5.53;;;;;;;31.65;40.76;100016.88;5091284;28;20136;-68
2022/06/03 06:16:21;;;;;;;11.68;5.13;;;;;;;31.87;39.97;100019.88;5105355;28;20222;-68
2022/06/03 06:19:00;;;;;;;9.60;5.18;;;;;;;31.98;40.28;100006.84;5105060;28;20024;-67
2022/06/03 06:21:32;;;;;;;10.00;4.47;;;;;;;32.31;38.93;100014.06;5104297;28;20044;-68
2022/06/03 06:24:00;;;;;;;15.90;5.13;;;;;;;32.46;38.58;100009.44;5103421;28;20023;-68
2022/06/03 06:26:49;;;;;;;14.70;4.57;;;;;;;32.35;38.02;100009.59;5106855;28;20357;-68
2022/06/03 06:29:46;;;;;;;14.68;4.93;;;;;;;32.73;37.06;100004.00;5120684;28;20041;-68
2022/06/03 06:32:39;;;;;;;16.50;4.47;;;;;;;32.67;36.76;99997.78;5118143;28;20040;-68
2022/06/03 06:35:26;;;;;;;8.73;4.22;;;;;;;32.90;35.26;100008.91;5118000;28;20031;-68
2022/06/03 06:38:22;;;;;;;11.32;3.88;;;;;;;33.04;35.80;100007.00;5120759;28;20305;-68
2022/06/03 06:41:14;;;;;;;14.82;4.63;;;;;;;33.36;34.69;100010.81;5102963;28;20038;-68
2022/06/03 06:43:50;;;;;;;13.75;5.60;;;;;;;33.82;34.72;100003.19;5116244;28;20027;-68
2022/06/03 06:46:25;;;;;;;10.25;3.80;;;;;;;33.24;35.26;100008.50;5121909;28;20351;-68
2022/06/03 06:49:09;;;;;;;14.07;4.80;;;;;;;33.78;34.29;100001.34;5115642;28;20031;-67
2022/06/03 06:51:50;;;;;;;10.55;4.35;;;;;;;34.11;33.98;100007.47;5121986;28;20103;-69
2022/06/03 06:54:27;;;;;;;12.98;4.07;;;;;;;34.16;33.98;99999.09;5116422;28;20039;-68
2022/06/03 06:56:58;;;;;;;10.15;4.22;;;;;;;34.49;32.88;100002.44;5118335;28;20032;-69
2022/06/03 06:59:35;;;;;;;12.60;4.53;;;;;;;34.56;33.33;100003.63;5116421;28;20050;-69
2022/06/03 07:02:06;;;;;;;29.73;6.68;;;;;;;34.64;32.70;100004.78;5120484;28;20033;-68
2022/06/03 07:04:38;;;;;;;13.93;4.22;;;;;;;33.77;33.51;99997.78;5121610;28;20058;-68
2022/06/03 07:07:20;;;;;;;163.05;23.08;;;;;;;34.41;33.05;100001.28;5110857;28;20028;-68
2022/06/03 07:09:55;;;;;;;11.02;4.32;;;;;;;34.63;32.29;100002.38;5110248;28;20031;-68
2022/06/03 07:12:38;;;;;;;14.88;4.75;;;;;;;34.71;31.72;100005.16;5121303;28;20055;-68
2022/06/03 07:15:14;;;;;;;8.50;3.65;;;;;;;35.02;32.04;100002.41;5119490;28;20039;-69
2022/06/03 07:20:39;;;;;;;13.50;4.00;;;;;;;35.27;31.34;100005.56;5106122;28;20344;-68
2022/06/03 07:23:13;;;;;;;11.07;4.03;;;;;;;35.42;30.79;99999.66;5102623;28;20151;-68
2022/06/03 07:25:41;;;;;;;13.13;4.10;;;;;;;35.61;30.24;99994.66;5105129;28;20024;-68
2022/06/03 07:28:28;;;;;;;11.43;4.25;;;;;;;35.73;29.93;99994.03;5107683;28;20039;-68
2022/06/03 07:31:02;;;;;;;13.93;4.25;;;;;;;35.66;30.40;100000.00;5108175;28;20040;-68
2022/06/03 07:33:31;;;;;;;9.13;3.72;;;;;;;35.98;29.92;100006.22;5104124;28;20028;-68
2022/06/03 07:36:10;;;;;;;11.23;4.45;;;;;;;35.33;30.67;100001.56;5104425;28;20090;-68
2022/06/03 07:38:54;;;;;;;13.55;4.60;;;;;;;35.50;31.23;99996.91;5104604;28;20050;-68
2022/06/03 07:41:41;;;;;;;64.28;8.93;;;;;;;35.38;31.14;99998.69;5104752;28;20333;-68
2022/06/03 07:44:20;;;;;;;23.10;5.03;;;;;;;35.76;30.34;99996.13;5104876;28;20105;-67
2022/06/03 07:47:00;;;;;;;12.20;4.78;;;;;;;35.50;30.95;99996.91;5111987;28;20032;-67
2022/06/03 07:49:28;;;;;;;15.15;4.70;;;;;;;35.82;29.48;99998.44;5106257;28;20054;-67
2022/06/03 07:51:59;;;;;;;12.27;5.82;;;;;;;36.23;28.26;100001.81;5108339;28;20207;-67
2022/06/03 07:54:34;;;;;;;11.93;4.13;;;;;;;36.27;28.85;99989.00;5103929;28;20329;-67
2022/06/03 07:57:22;;;;;;;8.57;3.83;;;;;;;36.11;29.73;99988.69;5108180;28;20032;-68
2022/06/03 07:59:48;;;;;;;12.82;3.72;;;;;;;36.62;27.85;99995.28;5105214;28;20278;-67
2022/06/03 08:02:16;;;;;;;16.30;3.70;;;;;;;36.48;27.48;99994.69;5112137;28;20397;-67
2022/06/03 08:04:43;;;;;;;8.52;4.03;;;;;;;36.87;27.22;99999.13;5106526;28;20031;-67
2022/06/03 08:13:03;;;;;;;7.78;3.78;;;;;;;36.65;26.14;100011.19;5110068;28;20123;-68
2022/06/03 08:15:33;;;;;;;11.82;3.70;;;;;;;36.08;27.33;100005.88;5115055;28;20040;-68
2022/06/03 08:18:02;;;;;;;7.90;3.88;;;;;;;35.90;27.97;99996.81;5108891;28;20245;-67
2022/06/03 08:20:29;;;;;;;10.07;3.75;;;;;;;36.24;28.11;100011.69;5111258;28;20036;-67
2022/06/03 08:22:55;;;;;;;9.95;3.78;;;;;;;36.47;28.05;100013.19;5109070;28;20059;-68
2022/06/03 08:25:26;;;;;;;12.80;4.63;;;;;;;35.99;28.96;100002.31;5107614;28;20023;-67
2022/06/03 08:27:54;;;;;;;147.02;17.38;;;;;;;36.08;27.82;100001.19;5114688;28;20039;-67
2022/06/03 08:30:23;;;;;;;9.27;4.18;;;;;;;35.03;29.26;99998.53;5110204;28;20338;-67
2022/06/03 08:32:54;;;;;;;11.32;4.07;;;;;;;35.63;28.62;100005.34;5113667;28;20213;-67
2022/06/03 08:35:26;;;;;;;7.45;3.88;;;;;;;36.36;27.25;99998.91;5108405;28;20047;-67
2022/06/03 08:37:56;;;;;;;11.77;4.13;;;;;;;36.01;27.93;100002.81;5109663;28;20325;-67
2022/06/03 08:40:48;;;;;;;9.75;3.58;;;;;;;36.00;27.31;100002.00;5117036;28;20028;-67
2022/06/03 08:43:41;;;;;;;18.70;4.95;;;;;;;36.37;26.33;99999.69;5111413;28;20038;-67
2022/06/03 08:46:12;;;;;;;8.93;3.30;;;;;;;35.80;27.19;99988.84;5120032;28;20043;-68
2022/06/03 08:48:42;;;;;;;7.30;3.20;;;;;;;36.24;25.38;99984.13;5121307;28;20625;-67
2022/06/03 08:51:21;;;;;;;11.23;3.65;;;;;;;36.41;27.53;99986.88;5122283;28;20331;-68
2022/06/03 08:54:00;;;;;;;9.70;4.70;;;;;;;35.95;27.11;99980.13;5117166;28;20042;-67
2022/06/03 08:56:31;;;;;;;13.38;4.18;;;;;;;35.63;27.78;99981.38;5117637;28;20036;-68
2022/06/03 08:59:01;;;;;;;11.38;3.22;;;;;;;35.91;28.65;99978.34;5118096;28;20097;-67
2022/06/03 09:01:40;;;;;;;6.68;3.05;;;;;;;36.22;28.17;99969.84;5124243;28;20064;-68
2022/06/03 09:04:34;;;;;;;11.10;3.88;;;;;;;36.29;27.43;99970.19;5120749;28;20027;-67
2022/06/03 09:07:18;;;;;;;16.98;4.00;;;;;;;36.34;25.85;99972.78;5124277;28;20035;-67
2022/06/03 09:10:05;;;;;;;9.77;3.33;;;;;;;35.80;27.18;99967.63;5114337;28;20032;-68
2022/06/03 09:12:30;;;;;;;11.27;3.30;;;;;;;36.14;26.67;99964.03;5122115;28;20051;-68
2022/06/03 09:15:05;;;;;;;9.38;3.03;;;;;;;36.64;25.36;99966.22;5123622;28;20256;-68
2022/06/03 09:17:52;;;;;;;7.68;3.47;;;;;;;36.33;26.60;99965.66;5117911;28;20027;-67
2022/06/03 09:20:37;;;;;;;7.60;2.95;;;;;;;35.83;27.55;99963.44;5118515;28;20077;-68
2022/06/03 09:23:11;;;;;;;141.38;20.88;;;;;;;35.93;26.05;99963.09;5123403;28;20310;-68
2022/06/03 09:25:42;;;;;;;9.80;3.40;;;;;;;35.89;25.82;99953.03;5123629;28;20024;-67
2022/06/03 09:28:14;;;;;;;69.63;9.98;;;;;;;35.87;27.57;99956.13;5120672;28;20066;-68
2022/06/03 09:30:40;;;;;;;101.85;14.15;;;;;;;36.04;26.87;99960.81;5123429;28;20094;-67
2022/06/03 09:33:11;;;;;;;17.33;3.70;;;;;;;35.28;27.13;99957.63;5118250;28;20044;-68
2022/06/03 09:35:41;;;;;;;12.93;5.13;;;;;;;35.48;27.37;99960.63;5115062;28;20072;-67
2022/06/03 09:38:09;;;;;;;14.57;5.50;;;;;;;35.66;27.77;99960.63;5112929;28;20105;-67
2022/06/03 09:40:39;;;;;;;7.40;3.45;;;;;;;35.50;26.16;99952.84;5113365;28;20027;-67
2022/06/03 09:43:17;;;;;;;11.27;3.35;;;;;;;35.57;27.10;99955.13;5114524;28;20062;-67
2022/06/03 09:45:46;;;;;;;245.18;26.63;;;;;;;35.02;26.97;99950.13;5108976;28;20035;-67
2022/06/03 09:48:15;;;;;;;10.93;3.38;;;;;;;34.92;25.08;99955.91;5091112;28;20071;-68
2022/06/03 09:50:45;;;;;;;282.90;31.73;;;;;;;34.97;26.90;99943.97;5106395;28;20026;-68
2022/06/03 09:53:11;;;;;;;80.07;10.65;;;;;;;34.98;27.56;99951.88;5111458;28;20043;-68
2022/06/03 09:55:43;;;;;;;105.88;13.80;;;;;;;34.97;27.12;99949.47;5115617;28;20099;-68
2022/06/03 09:58:15;;;;;;;8.77;3.17;;;;;;;35.09;27.53;99946.91;5112857;28;20234;-68
2022/06/03 10:00:48;;;;;;;58.58;8.25;;;;;;;35.00;26.85;99952.38;5107757;28;20077;-67
2022/06/03 10:03:14;;;;;;;5.32;3.03;;;;;;;34.87;25.95;99953.31;5114510;28;20035;-68
2022/06/03 10:05:45;;;;;;;8.32;3.03;;;;;;;34.69;25.93;99957.91;5110567;28;20039;-68
2022/06/03 10:08:11;;;;;;;734.28;87.03;;;;;;;34.23;26.49;99955.50;5108568;28;20043;-67
2022/06/03 10:13:22;;;;;;;574.35;58.20;;;;;;;33.96;28.67;99964.69;5108681;28;20266;-67
2022/06/03 10:15:56;;;;;;;36.33;6.07;;;;;;;34.01;27.17;99961.81;5108959;28;20032;-67
2022/06/03 10:18:49;;;;;;;49.92;7.85;;;;;;;34.31;26.16;99965.72;5112920;28;20043;-67
2022/06/03 10:21:14;;;;;;;565.22;77.80;;;;;;;33.94;28.08;99965.00;5107740;28;20329;-67
2022/06/03 10:23:47;;;;;;;7.75;3.00;;;;;;;33.95;26.58;99963.06;5108703;28;20050;-67
2022/06/03 10:26:40;;;;;;;5.57;2.92;;;;;;;33.83;27.67;99965.56;5108837;28;20028;-68
2022/06/03 10:29:13;;;;;;;9.45;3.42;;;;;;;33.87;26.87;99967.38;5109893;28;20043;-68
2022/06/03 10:31:39;;;;;;;8.50;3.42;;;;;;;33.55;26.86;99964.81;5113698;28;20043;-67
2022/06/03 10:34:10;;;;;;;401.05;47.63;;;;;;;33.46;27.04;99972.97;5106568;28;20039;-67
2022/06/03 10:36:45;;;;;;;6.50;2.90;;;;;;;33.50;26.53;99967.66;5111722;28;20087;-67
2022/06/03 10:39:16;;;;;;;7.15;3.10;;;;;;;33.44;26.64;99966.16;5106628;28;20367;-67
2022/06/03 10:41:45;;;;;;;6.57;3.42;;;;;;;33.46;26.84;99956.50;5113026;28;20020;-67
2022/06/03 10:44:21;;;;;;;6.07;3.17;;;;;;;33.36;27.08;99962.22;5108953;28;20052;-67
2022/06/03 10:47:13;;;;;;;7.68;3.30;;;;;;;33.67;27.77;99948.59;5109820;28;20079;-67
2022/06/03 10:50:07;;;;;;;5.18;2.90;;;;;;;33.87;26.72;99955.56;5105939;28;20329;-67
2022/06/03 11:01:41;;;;;;;6.72;3.05;;;;;;;33.86;25.90;99953.97;5121885;28;20030;-67
2022/06/03 11:04:22;;;;;;;11.35;3.70;;;;;;;33.67;25.58;99943.09;5071504;28;20356;-67
2022/06/03 11:06:47;;;;;;;8.18;3.35;;;;;;;33.48;26.30;99937.78;5114717;28;20256;-67
2022/06/03 11:09:15;;;;;;;9.38;3.33;;;;;;;33.25;26.92;99928.63;5121587;28;20042;-67
2022/06/03 11:11:42;;;;;;;79.10;10.38;;;;;;;33.23;26.49;99927.31;5121175;28;20040;-67
2022/06/03 11:14:30;;;;;;;9.20;3.22;;;;;;;33.27;26.05;99922.81;5120427;28;20039;-67
2022/06/03 11:17:07;;;;;;;6.38;3.17;;;;;;;33.19;28.00;99934.53;5109865;28;20027;-67
2022/06/03 11:19:37;;;;;;;7.72;3.30;;;;;;;33.33;26.70;99932.63;5121546;28;20055;-67
2022/06/03 11:22:24;;;;;;;3.78;2.85;;;;;;;33.51;27.70;99928.94;5120160;28;20027;-67
2022/06/03 11:24:58;;;;;;;9.50;3.17;;;;;;;33.49;27.26;99917.44;5111762;28;20123;-67
2022/06/03 11:27:29;;;;;;;11.75;3.20;;;;;;;33.38;25.95;99912.50;5115159;28;20030;-67
2022/06/03 11:30:01;;;;;;;9.55;3.28;;;;;;;33.42;25.95;99913.50;5121804;28;20023;-67
2022/06/03 11:32:31;;;;;;;9.18;2.95;;;;;;;33.35;26.96;99916.66;5121491;28;20086;-68
2022/06/03 11:35:05;;;;;;;8.50;4.60;;;;;;;33.60;27.05;99907.84;5117468;28;20040;-67
2022/06/03 11:40:55;;;;;;;327.08;42.50;;;;;;;33.45;26.03;99899.97;5125020;28;20069;-68
2022/06/03 11:43:33;;;;;;;8.05;2.97;;;;;;;33.74;23.92;99898.75;5115426;28;20035;-67
2022/06/03 11:46:04;;;;;;;28.60;4.65;;;;;;;33.58;24.47;99898.28;5109055;28;20026;-67
2022/06/03 11:48:38;;;;;;;48.03;6.53;;;;;;;33.57;24.84;99889.25;5109449;28;20032;-68
2022/06/03 11:51:06;;;;;;;5.82;2.70;;;;;;;33.96;25.12;99896.00;5116204;28;20031;-67
2022/06/03 11:53:34;;;;;;;5.35;2.55;;;;;;;34.03;23.71;99895.56;5109201;28;20040;-67
2022/06/03 11:56:03;;;;;;;23.23;4.82;;;;;;;33.85;24.26;99900.13;5112218;28;20293;-67
2022/06/03 11:58:40;;;;;;;5.15;2.70;;;;;;;33.92;24.48;99895.03;5117918;28;20101;-67
2022/06/03 12:01:12;;;;;;;6.97;2.97;;;;;;;33.75;24.73;99901.19;5112303;28;20043;-67
2022/06/03 12:03:51;;;;;;;7.72;2.92;;;;;;;33.77;24.31;99901.69;5114562;28;20125;-67
2022/06/03 12:06:44;;;;;;;7.88;2.60;;;;;;;34.18;24.46;99914.41;5108439;28;20094;-67
2022/06/03 12:09:40;;;;;;;7.78;3.22;;;;;;;34.20;24.19;99906.66;5103370;28;20048;-67
2022/06/03 12:15:35;;;;;;;5.63;2.78;;;;;;;33.44;25.86;99916.75;5107386;28;20077;-67
2022/06/03 12:18:06;;;;;;;6.25;2.75;;;;;;;33.31;27.13;99948.59;5112943;28;20086;-67
2022/06/03 12:20:31;;;;;;;12.23;3.85;;;;;;;31.57;37.31;99947.19;5112349;28;20040;-67
2022/06/03 12:23:12;;;;;;;13.20;4.10;;;;;;;30.74;40.55;99945.75;5113294;28;20108;-67
2022/06/03 12:25:40;;;;;;;13.20;4.32;;;;;;;30.11;42.36;99934.84;5110967;28;20119;-67
2022/06/03 12:28:15;;;;;;;12.55;3.88;;;;;;;30.26;42.28;99938.56;5110981;28;20034;-67
2022/06/03 12:30:43;;;;;;;18.13;3.97;;;;;;;30.29;43.28;99936.06;5113342;28;20047;-67
2022/06/03 12:33:36;;;;;;;8.95;3.63;;;;;;;29.77;43.07;99955.81;5109711;28;20089;-67
2022/06/03 12:36:25;;;;;;;10.95;3.25;;;;;;;29.28;43.96;99907.53;5110054;28;20332;-66
2022/06/03 12:38:55;;;;;;;13.95;4.13;;;;;;;29.07;44.77;99935.97;5100606;28;20027;-67
2022/06/03 12:41:45;;;;;;;16.38;3.90;;;;;;;29.06;48.09;99943.34;5112949;28;20024;-67
2022/06/03 12:44:23;;;;;;;12.43;4.93;;;;;;;28.74;52.03;99942.88;5108558;28;20044;-67
2022/06/03 12:46:49;;;;;;;12.98;4.78;;;;;;;28.28;53.25;99951.94;5109180;28;20020;-67
2022/06/03 12:49:37;;;;;;;14.82;5.18;;;;;;;28.51;52.16;99941.56;5114147;28;20036;-67
2022/06/03 12:52:08;;;;;;;14.32;5.53;;;;;;;28.72;49.58;99934.16;5110797;28;20047;-67
2022/06/03 12:54:46;;;;;;;13.32;4.70;;;;;;;29.19;49.37;99934.56;5109459;28;20559;-67
2022/06/03 12:57:27;;;;;;;9.43;4.70;;;;;;;29.34;47.17;99922.78;5115004;28;20666;-67